Time;durP1;ratioP1;P1;durP2;ratioP2;P2;SDS_P1;SDS_P2;PMS_P1;PMS_P2;Temp;Humidity;BMP_temperature;BMP_pressure;BME280_temperature;BME280_humidity;BME280_pressure;Samples;Min_cycle;Max_cycle;Signal;HPM_P1;HPM_P2
2022/08/23 00:02:03;;;;;;;0.40;0.40;;;17.10;99.90;;;;;;5089805;28;21156;-80
2022/08/23 00:04:33;;;;;;;0.40;0.40;;;17.10;99.90;;;;;;5071490;28;20047;-80
2022/08/23 00:06:59;;;;;;;0.30;0.30;;;17.00;99.90;;;;;;5073957;28;20058;-81
2022/08/23 00:09:27;;;;;;;0.40;0.40;;;17.00;99.90;;;;;;5056161;28;20051;-81
2022/08/23 00:12:17;;;;;;;0.30;0.30;;;16.90;99.90;;;;;;5088327;28;20661;-80
2022/08/23 00:14:51;;;;;;;0.30;0.30;;;16.80;99.90;;;;;;5069312;28;20078;-80
2022/08/23 00:17:17;;;;;;;0.35;0.35;;;16.60;99.90;;;;;;5072928;28;20050;-80
2022/08/23 00:19:44;;;;;;;0.40;0.40;;;16.80;99.90;;;;;;5089572;28;20039;-80
2022/08/23 00:22:10;;;;;;;0.30;0.30;;;16.80;99.90;;;;;;5071982;28;20043;-80
2022/08/23 00:24:37;;;;;;;0.30;0.30;;;16.90;99.90;;;;;;5071619;28;20106;-80
2022/08/23 00:27:08;;;;;;;0.40;0.40;;;16.80;99.90;;;;;;5058613;28;20055;-80
2022/08/23 00:29:41;;;;;;;0.30;0.30;;;16.80;99.90;;;;;;5085827;28;20144;-80
2022/08/23 00:32:10;;;;;;;0.33;0.33;;;16.80;99.90;;;;;;5072320;28;20060;-80
2022/08/23 00:34:37;;;;;;;0.30;0.30;;;16.80;99.90;;;;;;5054671;28;20079;-80
2022/08/23 00:37:04;;;;;;;0.30;0.30;;;16.70;99.90;;;;;;5073764;28;20528;-80
2022/08/23 00:39:30;;;;;;;0.35;0.35;;;16.70;99.90;;;;;;5071109;28;20067;-80
2022/08/23 00:47:54;;;;;;;0.30;0.30;;;16.60;99.90;;;;;;5069939;28;20917;-80
2022/08/23 00:50:33;;;;;;;0.30;0.30;;;16.60;99.90;;;;;;5089334;28;20403;-80
2022/08/23 00:53:23;;;;;;;0.40;0.40;;;16.70;99.90;;;;;;5069713;28;20040;-80
2022/08/23 00:55:56;;;;;;;0.38;0.38;;;16.70;99.90;;;;;;5071755;28;20071;-80
2022/08/23 00:58:22;;;;;;;0.30;0.30;;;16.70;99.90;;;;;;5072022;28;20504;-80
2022/08/23 01:00:49;;;;;;;0.43;0.43;;;16.60;99.90;;;;;;5085637;28;20047;-79
2022/08/23 01:03:16;;;;;;;0.30;0.30;;;16.60;99.90;;;;;;5071118;28;20087;-80
2022/08/23 01:05:48;;;;;;;0.30;0.30;;;16.50;99.90;;;;;;5071080;28;20056;-80
2022/08/23 01:08:14;;;;;;;0.30;0.30;;;16.50;99.90;;;;;;5072400;28;20051;-79
2022/08/23 01:10:53;;;;;;;0.50;0.50;;;16.50;99.90;;;;;;5070469;28;20389;-80
2022/08/23 01:13:31;;;;;;;0.40;0.40;;;16.40;99.90;;;;;;5072585;28;20181;-80
2022/08/23 01:16:06;;;;;;;0.30;0.30;;;16.30;99.90;;;;;;5073613;28;20065;-80
2022/08/23 01:18:33;;;;;;;0.30;0.30;;;16.30;99.90;;;;;;5090336;28;20035;-80
2022/08/23 01:21:15;;;;;;;0.30;0.30;;;16.40;99.90;;;;;;5073797;28;20054;-80
2022/08/23 01:23:56;;;;;;;0.30;0.30;;;16.40;99.90;;;;;;5089846;28;20051;-80
2022/08/23 01:26:24;;;;;;;0.30;0.30;;;16.30;99.90;;;;;;5071542;28;20112;-80
2022/08/23 01:28:51;;;;;;;0.32;0.32;;;16.20;99.90;;;;;;5072835;28;20442;-80
2022/08/23 01:31:18;;;;;;;0.30;0.30;;;16.20;99.90;;;;;;5071202;28;20117;-80
2022/08/23 01:33:48;;;;;;;0.30;0.30;;;16.20;99.90;;;;;;5089107;28;20047;-80
2022/08/23 01:36:15;;;;;;;0.40;0.40;;;16.20;99.90;;;;;;5089726;28;20531;-80
2022/08/23 01:38:41;;;;;;;0.50;0.50;;;16.20;99.90;;;;;;5070570;28;20044;-80
2022/08/23 01:41:08;;;;;;;0.40;0.40;;;16.20;99.90;;;;;;5070575;28;20404;-80
2022/08/23 01:43:34;;;;;;;0.30;0.30;;;16.20;99.90;;;;;;5070331;28;20126;-80
2022/08/23 01:46:11;;;;;;;0.30;0.30;;;16.20;99.90;;;;;;5069857;28;20040;-80
2022/08/23 01:48:37;;;;;;;0.30;0.30;;;16.10;99.90;;;;;;5052488;28;20100;-80
2022/08/23 01:51:03;;;;;;;0.60;0.60;;;16.10;99.90;;;;;;5071519;28;20044;-80
2022/08/23 01:53:30;;;;;;;0.30;0.30;;;16.10;99.90;;;;;;5071824;28;20075;-80
2022/08/23 01:55:56;;;;;;;0.30;0.30;;;16.10;99.90;;;;;;5069685;28;20054;-80
2022/08/23 01:58:22;;;;;;;0.30;0.30;;;16.20;99.90;;;;;;5071097;28;20035;-80
2022/08/23 02:00:47;;;;;;;0.40;0.40;;;16.20;99.90;;;;;;5069028;28;20116;-80
2022/08/23 02:03:14;;;;;;;0.40;0.40;;;16.10;99.90;;;;;;5072442;28;20042;-80
2022/08/23 02:05:41;;;;;;;0.40;0.40;;;16.00;99.90;;;;;;5069972;28;20073;-80
2022/08/23 02:10:52;;;;;;;0.40;0.40;;;16.10;99.90;;;;;;5068660;28;20040;-80
2022/08/23 02:13:18;;;;;;;0.40;0.40;;;16.10;99.90;;;;;;5054758;28;20071;-80
2022/08/23 02:15:45;;;;;;;0.40;0.40;;;16.10;99.90;;;;;;5070160;28;20056;-80
2022/08/23 02:18:12;;;;;;;0.40;0.40;;;16.10;99.90;;;;;;5071129;28;20134;-80
2022/08/23 02:20:44;;;;;;;0.50;0.50;;;16.00;99.90;;;;;;5069588;28;20454;-80
2022/08/23 02:23:10;;;;;;;0.30;0.30;;;16.00;99.90;;;;;;5080421;28;20044;-80
2022/08/23 02:25:36;;;;;;;0.50;0.50;;;15.90;99.90;;;;;;5071302;28;20121;-80
2022/08/23 02:28:03;;;;;;;0.30;0.30;;;16.00;99.90;;;;;;5052050;28;20430;-80
2022/08/23 02:30:29;;;;;;;0.40;0.40;;;16.00;99.90;;;;;;5069236;28;20104;-80
2022/08/23 02:32:55;;;;;;;0.40;0.40;;;15.90;99.90;;;;;;5070654;28;20051;-80
2022/08/23 02:35:21;;;;;;;0.40;0.40;;;16.00;99.90;;;;;;5071534;28;20063;-80
2022/08/23 02:37:47;;;;;;;0.40;0.40;;;15.90;99.90;;;;;;5053683;28;20059;-80
2022/08/23 02:40:13;;;;;;;0.30;0.30;;;16.00;99.90;;;;;;5070050;28;20167;-80
2022/08/23 02:42:39;;;;;;;0.30;0.30;;;15.90;99.90;;;;;;5068293;28;20527;-80
2022/08/23 02:45:07;;;;;;;0.30;0.30;;;15.90;99.90;;;;;;5070233;28;20055;-80
2022/08/23 02:47:35;;;;;;;0.40;0.40;;;15.90;99.90;;;;;;5068699;28;20044;-80
2022/08/23 02:50:03;;;;;;;0.50;0.50;;;16.00;99.90;;;;;;5087166;28;20153;-80
2022/08/23 02:52:29;;;;;;;0.40;0.40;;;15.90;99.90;;;;;;5068844;28;20051;-80
2022/08/23 02:54:55;;;;;;;0.68;0.60;;;15.80;99.90;;;;;;5068336;28;20057;-80
2022/08/23 02:57:21;;;;;;;0.50;0.50;;;15.70;99.90;;;;;;5069723;28;20051;-80
2022/08/23 02:59:47;;;;;;;0.40;0.40;;;15.70;99.90;;;;;;5070006;28;20064;-80
2022/08/23 03:02:12;;;;;;;0.40;0.40;;;15.70;99.90;;;;;;5069107;28;20062;-80
2022/08/23 03:04:38;;;;;;;0.40;0.40;;;15.60;99.90;;;;;;5071137;28;20048;-80
2022/08/23 03:07:04;;;;;;;0.40;0.40;;;15.60;99.90;;;;;;5071572;28;20802;-80
2022/08/23 03:09:30;;;;;;;0.40;0.40;;;15.60;99.90;;;;;;5072222;28;20055;-80
2022/08/23 03:11:55;;;;;;;0.40;0.40;;;15.50;99.90;;;;;;5089594;28;20085;-80
2022/08/23 03:14:23;;;;;;;0.30;0.30;;;15.50;99.90;;;;;;5073415;28;20480;-80
2022/08/23 03:16:49;;;;;;;0.40;0.40;;;15.40;99.90;;;;;;5074406;28;20075;-80
2022/08/23 03:19:14;;;;;;;0.40;0.40;;;15.30;99.90;;;;;;5090839;28;20136;-80
2022/08/23 03:21:41;;;;;;;0.40;0.40;;;15.50;99.90;;;;;;5071600;28;20447;-80
2022/08/23 03:24:08;;;;;;;0.30;0.30;;;15.80;99.90;;;;;;5074172;28;20253;-80
2022/08/23 03:26:34;;;;;;;0.40;0.40;;;15.70;99.90;;;;;;5071922;28;20040;-80
2022/08/23 03:29:00;;;;;;;0.40;0.40;;;15.70;99.90;;;;;;5089831;28;20040;-81
2022/08/23 03:31:26;;;;;;;0.40;0.40;;;15.80;99.90;;;;;;5071614;28;20055;-80
2022/08/23 03:33:52;;;;;;;0.40;0.40;;;15.60;99.90;;;;;;5072712;28;20044;-81
2022/08/23 03:36:19;;;;;;;0.40;0.40;;;15.60;99.90;;;;;;5072923;28;20051;-80
2022/08/23 03:38:45;;;;;;;0.40;0.40;;;15.40;99.90;;;;;;5072050;28;20173;-80
2022/08/23 03:41:11;;;;;;;0.40;0.40;;;15.30;99.90;;;;;;5072531;28;20449;-80
2022/08/23 03:43:37;;;;;;;0.30;0.30;;;15.30;99.90;;;;;;5056833;28;20586;-80
2022/08/23 03:46:04;;;;;;;0.40;0.40;;;15.30;99.90;;;;;;5072904;28;20047;-80
2022/08/23 03:48:30;;;;;;;0.50;0.50;;;15.20;99.90;;;;;;5073519;28;20504;-80
2022/08/23 03:50:56;;;;;;;0.40;0.40;;;15.20;99.90;;;;;;5071165;28;20047;-80
2022/08/23 03:53:22;;;;;;;0.40;0.40;;;15.20;99.90;;;;;;5090648;28;20054;-80
2022/08/23 03:55:49;;;;;;;0.40;0.40;;;15.10;99.90;;;;;;5071820;28;20083;-80
2022/08/23 03:58:15;;;;;;;0.40;0.40;;;15.10;99.90;;;;;;5074607;28;20116;-80
2022/08/23 04:00:41;;;;;;;0.40;0.40;;;15.10;99.90;;;;;;5073123;28;20051;-80
2022/08/23 04:03:06;;;;;;;0.30;0.30;;;15.00;99.90;;;;;;5054322;28;20055;-80
2022/08/23 04:05:32;;;;;;;1.75;0.88;;;15.00;99.90;;;;;;5070623;28;20072;-80
2022/08/23 04:08:01;;;;;;;0.30;0.30;;;15.00;99.90;;;;;;5071614;28;20043;-80
2022/08/23 04:10:26;;;;;;;0.40;0.40;;;15.00;99.90;;;;;;5070982;28;20119;-80
2022/08/23 04:12:53;;;;;;;0.40;0.40;;;15.30;99.90;;;;;;5088535;28;20044;-80
2022/08/23 04:15:19;;;;;;;0.40;0.40;;;15.30;99.90;;;;;;5072536;28;20129;-80
2022/08/23 04:17:45;;;;;;;0.40;0.40;;;15.30;99.90;;;;;;5056140;28;20059;-81
2022/08/23 04:20:11;;;;;;;0.40;0.40;;;15.30;99.90;;;;;;5090035;28;20040;-81
2022/08/23 04:22:37;;;;;;;0.47;0.47;;;15.30;99.90;;;;;;5071538;28;20049;-81
2022/08/23 04:25:04;;;;;;;0.40;0.40;;;15.50;99.90;;;;;;5071482;28;20059;-81
2022/08/23 04:27:30;;;;;;;0.40;0.40;;;15.40;99.90;;;;;;5072821;28;20039;-80
2022/08/23 04:29:57;;;;;;;0.40;0.40;;;15.30;99.90;;;;;;5070012;28;20047;-80
2022/08/23 04:32:23;;;;;;;0.30;0.30;;;15.30;99.90;;;;;;5072144;28;20122;-80
2022/08/23 04:34:49;;;;;;;0.40;0.40;;;15.40;99.90;;;;;;5036041;28;20460;-80
2022/08/23 04:37:14;;;;;;;0.30;0.30;;;15.40;99.90;;;;;;5073248;28;20048;-80
2022/08/23 04:42:25;;;;;;;0.40;0.40;;;15.30;99.90;;;;;;5072825;28;20462;-81
2022/08/23 04:44:51;;;;;;;0.40;0.40;;;15.20;99.90;;;;;;5070050;28;20109;-80
2022/08/23 04:47:19;;;;;;;0.40;0.40;;;15.20;99.90;;;;;;5074014;28;20055;-80
2022/08/23 04:49:45;;;;;;;0.30;0.30;;;15.20;99.90;;;;;;5089599;28;20154;-80
2022/08/23 04:52:12;;;;;;;0.40;0.40;;;15.10;99.90;;;;;;5074510;28;20061;-81
2022/08/23 04:54:38;;;;;;;0.30;0.30;;;15.20;99.90;;;;;;5072442;28;20058;-81
2022/08/23 04:57:03;;;;;;;0.32;0.32;;;15.20;99.90;;;;;;5058079;28;20044;-81
2022/08/23 04:59:29;;;;;;;0.40;0.40;;;15.20;99.90;;;;;;5071861;28;20730;-80
2022/08/23 05:01:54;;;;;;;0.40;0.40;;;15.20;99.90;;;;;;5071895;28;20090;-82
2022/08/23 05:04:20;;;;;;;0.40;0.40;;;15.20;99.90;;;;;;5087528;28;20150;-80
2022/08/23 05:06:46;;;;;;;0.40;0.40;;;15.80;99.90;;;;;;5071828;28;20043;-80
2022/08/23 05:09:13;;;;;;;0.40;0.40;;;16.30;99.90;;;;;;5088700;28;20051;-81
2022/08/23 05:11:38;;;;;;;0.40;0.40;;;16.80;99.90;;;;;;5090536;28;20047;-81
2022/08/23 05:14:04;;;;;;;0.40;0.40;;;17.30;99.90;;;;;;5068216;28;20055;-80
2022/08/23 05:16:30;;;;;;;0.40;0.40;;;17.70;99.90;;;;;;5056548;28;20344;-80
2022/08/23 05:18:56;;;;;;;0.40;0.40;;;18.30;99.90;;;;;;5070177;28;20477;-81
2022/08/23 05:21:23;;;;;;;0.40;0.40;;;18.60;99.90;;;;;;5070349;28;20045;-80
2022/08/23 05:23:50;;;;;;;0.40;0.40;;;19.00;99.90;;;;;;5070061;28;20669;-80
2022/08/23 05:26:16;;;;;;;0.60;0.60;;;19.50;99.90;;;;;;5069412;28;20059;-81
2022/08/23 05:28:45;;;;;;;0.32;0.32;;;20.00;99.90;;;;;;5070093;28;20067;-81
2022/08/23 05:31:14;;;;;;;0.30;0.30;;;20.30;99.90;;;;;;5069755;28;20043;-80
2022/08/23 05:33:41;;;;;;;0.30;0.30;;;20.70;99.90;;;;;;5071679;28;20837;-81
2022/08/23 05:36:09;;;;;;;0.40;0.40;;;20.70;99.90;;;;;;5068666;28;20104;-81
2022/08/23 05:38:36;;;;;;;0.40;0.40;;;20.50;99.90;;;;;;5089103;28;20044;-81
2022/08/23 05:41:02;;;;;;;0.57;0.40;;;21.20;99.90;;;;;;5087148;28;20039;-80
2022/08/23 05:43:28;;;;;;;0.40;0.40;;;21.80;99.90;;;;;;5053141;28;20048;-80
2022/08/23 05:46:09;;;;;;;0.40;0.40;;;22.00;99.90;;;;;;5069666;28;20487;-81
2022/08/23 05:48:36;;;;;;;0.30;0.30;;;22.10;99.90;;;;;;5070182;28;20047;-81
2022/08/23 05:51:24;;;;;;;0.30;0.30;;;22.70;99.90;;;;;;5085335;28;20051;-81
2022/08/23 05:53:52;;;;;;;0.40;0.40;;;22.40;99.90;;;;;;5066821;28;20048;-81
2022/08/23 05:56:18;;;;;;;0.30;0.30;;;21.20;99.90;;;;;;5066833;28;20051;-81
2022/08/23 05:58:45;;;;;;;0.30;0.30;;;20.30;99.90;;;;;;5087905;28;20124;-81
2022/08/23 06:01:12;;;;;;;0.30;0.30;;;20.50;99.90;;;;;;5086147;28;20056;-81
2022/08/23 06:03:38;;;;;;;0.45;0.45;;;20.50;99.90;;;;;;5067982;28;20055;-80
2022/08/23 06:06:05;;;;;;;0.30;0.30;;;20.50;99.90;;;;;;5087009;28;20071;-81
2022/08/23 06:08:33;;;;;;;0.30;0.30;;;20.70;99.90;;;;;;5069636;28;20050;-80
2022/08/23 06:11:09;;;;;;;0.30;0.30;;;20.80;99.90;;;;;;5067548;28;20116;-80
2022/08/23 06:13:42;;;;;;;0.30;0.30;;;20.80;99.90;;;;;;5038310;28;20547;-80
2022/08/23 06:16:10;;;;;;;0.38;0.38;;;20.70;99.90;;;;;;5088057;28;20127;-80
2022/08/23 06:18:36;;;;;;;0.50;0.50;;;21.00;99.90;;;;;;5087053;28;20044;-81
2022/08/23 06:21:07;;;;;;;0.30;0.30;;;21.20;99.90;;;;;;5068861;28;20797;-80
2022/08/23 06:23:34;;;;;;;0.30;0.30;;;21.10;99.90;;;;;;5071865;28;20050;-80
2022/08/23 06:26:00;;;;;;;0.30;0.30;;;21.30;99.90;;;;;;5084223;28;20605;-81
2022/08/23 06:28:28;;;;;;;0.30;0.30;;;21.50;99.90;;;;;;5068393;28;20051;-80
2022/08/23 06:30:55;;;;;;;0.30;0.30;;;21.20;99.90;;;;;;5066984;28;20058;-81
2022/08/23 06:33:22;;;;;;;0.30;0.30;;;21.40;99.90;;;;;;5067131;28;20051;-82
2022/08/23 06:35:49;;;;;;;0.30;0.30;;;21.70;99.90;;;;;;5066981;28;20039;-80
2022/08/23 06:38:16;;;;;;;0.30;0.30;;;21.80;99.90;;;;;;5068868;28;20054;-82
2022/08/23 06:40:42;;;;;;;0.30;0.30;;;21.90;99.90;;;;;;5068499;28;20067;-81
2022/08/23 06:43:08;;;;;;;0.30;0.30;;;22.10;99.90;;;;;;5068667;28;20033;-80
2022/08/23 06:45:34;;;;;;;0.40;0.40;;;21.60;99.90;;;;;;5068102;28;20130;-81
2022/08/23 06:47:59;;;;;;;0.30;0.30;;;21.80;99.90;;;;;;5071482;28;20089;-81
2022/08/23 06:50:25;;;;;;;0.30;0.30;;;21.90;99.90;;;;;;5058035;28;20044;-80
2022/08/23 06:52:51;;;;;;;0.30;0.30;;;21.90;99.90;;;;;;5073982;28;20392;-81
2022/08/23 06:55:18;;;;;;;0.30;0.30;;;21.30;99.90;;;;;;5075514;28;20044;-81
2022/08/23 06:57:44;;;;;;;0.30;0.30;;;21.50;99.90;;;;;;5073624;28;20059;-81
2022/08/23 07:00:11;;;;;;;0.30;0.30;;;21.30;99.90;;;;;;5091512;28;20122;-81
2022/08/23 07:02:37;;;;;;;0.30;0.30;;;21.40;99.90;;;;;;5072903;28;20100;-81
2022/08/23 07:05:04;;;;;;;0.30;0.30;;;21.80;99.90;;;;;;5089972;28;20543;-81
2022/08/23 07:07:29;;;;;;;0.30;0.30;;;22.00;99.90;;;;;;5071494;28;20047;-80
2022/08/23 07:09:55;;;;;;;0.30;0.30;;;22.20;99.90;;;;;;5071384;28;20105;-81
2022/08/23 07:12:21;;;;;;;0.30;0.30;;;22.00;99.90;;;;;;5071279;28;20054;-80
2022/08/23 07:14:48;;;;;;;0.30;0.30;;;22.00;99.90;;;;;;5073252;28;20055;-81
2022/08/23 07:17:14;;;;;;;0.30;0.30;;;21.80;99.90;;;;;;5073369;28;20047;-80
2022/08/23 07:19:42;;;;;;;0.30;0.30;;;22.10;99.90;;;;;;5072233;28;20789;-80
2022/08/23 07:22:09;;;;;;;0.30;0.30;;;22.30;99.90;;;;;;5089528;28;20516;-80
2022/08/23 07:24:36;;;;;;;0.30;0.30;;;22.10;99.90;;;;;;5068583;28;20044;-80
2022/08/23 07:27:08;;;;;;;0.30;0.30;;;22.00;99.90;;;;;;5069348;28;20048;-80
2022/08/23 07:29:38;;;;;;;0.30;0.30;;;22.30;99.90;;;;;;5068319;28;20052;-82
2022/08/23 07:32:04;;;;;;;0.30;0.30;;;22.80;99.90;;;;;;5051056;28;20047;-81
2022/08/23 07:34:30;;;;;;;0.30;0.30;;;23.00;99.90;;;;;;5086279;28;20058;-82
2022/08/23 07:36:56;;;;;;;0.32;0.30;;;22.80;99.90;;;;;;5066480;28;20048;-80
2022/08/23 07:39:25;;;;;;;0.30;0.30;;;23.20;99.90;;;;;;5071582;28;20043;-81
2022/08/23 07:41:51;;;;;;;0.30;0.30;;;23.40;99.90;;;;;;5070229;28;20742;-80
2022/08/23 07:44:17;;;;;;;0.30;0.30;;;23.40;99.90;;;;;;5073575;28;20496;-79
2022/08/23 07:46:45;;;;;;;0.30;0.30;;;23.60;99.90;;;;;;5090735;28;20489;-79
2022/08/23 07:49:11;;;;;;;0.30;0.30;;;23.60;99.90;;;;;;5070205;28;20059;-80
2022/08/23 07:51:39;;;;;;;0.30;0.30;;;23.70;99.90;;;;;;5070691;28;20052;-81
2022/08/23 07:54:08;;;;;;;0.30;0.30;;;24.00;99.90;;;;;;5072102;28;20047;-81
2022/08/23 07:56:34;;;;;;;0.30;0.30;;;24.20;99.90;;;;;;5072014;28;20246;-80
2022/08/23 07:59:00;;;;;;;0.30;0.30;;;24.20;99.90;;;;;;5073058;28;20839;-80
2022/08/23 08:01:27;;;;;;;0.30;0.30;;;24.30;99.90;;;;;;5069270;28;20047;-80
2022/08/23 08:03:56;;;;;;;0.30;0.30;;;23.40;99.90;;;;;;5066542;28;20039;-80
2022/08/23 08:06:31;;;;;;;0.30;0.30;;;24.20;99.90;;;;;;5080053;28;20795;-80
2022/08/23 08:08:58;;;;;;;0.30;0.30;;;24.70;99.90;;;;;;5046232;28;20128;-80
2022/08/23 08:11:26;;;;;;;0.30;0.30;;;24.70;99.90;;;;;;5062754;28;20100;-80
2022/08/23 08:13:53;;;;;;;0.30;0.30;;;24.80;99.90;;;;;;5090303;28;20370;-80
2022/08/23 08:16:23;;;;;;;0.30;0.30;;;24.70;99.90;;;;;;5072403;28;20048;-80
2022/08/23 08:18:50;;;;;;;0.20;0.20;;;24.60;99.90;;;;;;5070897;28;20054;-82
2022/08/23 08:21:17;;;;;;;0.20;0.20;;;24.80;99.90;;;;;;5072909;28;20051;-81
2022/08/23 08:23:43;;;;;;;0.30;0.30;;;24.80;99.90;;;;;;5054323;28;20043;-80
2022/08/23 08:26:10;;;;;;;0.30;0.30;;;24.60;99.90;;;;;;5073220;28;20048;-81
2022/08/23 08:28:37;;;;;;;0.30;0.30;;;24.40;99.90;;;;;;5070471;28;20123;-79
2022/08/23 08:31:03;;;;;;;0.25;0.25;;;24.20;99.90;;;;;;5073937;28;20084;-81
2022/08/23 08:33:29;;;;;;;0.30;0.30;;;24.60;99.90;;;;;;5073745;28;20108;-80
2022/08/23 08:35:56;;;;;;;0.30;0.30;;;24.70;99.90;;;;;;5073469;28;20845;-80
2022/08/23 08:38:22;;;;;;;0.30;0.30;;;24.60;99.90;;;;;;5071768;28;20110;-80
2022/08/23 08:41:16;;;;;;;0.30;0.30;;;24.70;99.90;;;;;;5073989;28;20047;-82
2022/08/23 08:44:01;;;;;;;;;;;25.60;99.90;;;;;;5080608;28;20052;-82
2022/08/23 08:46:47;;;;;;;0.20;0.20;;;25.70;99.90;;;;;;5070302;28;19920;-80
2022/08/23 08:49:24;;;;;;;0.30;0.30;;;26.30;99.90;;;;;;5057728;28;20089;-80
2022/08/23 08:51:59;;;;;;;0.20;0.20;;;26.60;99.90;;;;;;5073322;28;20051;-80
2022/08/23 08:54:28;;;;;;;0.30;0.30;;;26.50;99.90;;;;;;5071185;28;20498;-80
2022/08/23 08:56:57;;;;;;;0.30;0.30;;;26.90;99.90;;;;;;5071005;28;20492;-81
2022/08/23 08:59:36;;;;;;;0.30;0.30;;;26.20;99.90;;;;;;5071828;28;20977;-79
2022/08/23 09:02:04;;;;;;;0.20;0.20;;;25.90;99.90;;;;;;5071024;28;20050;-81
2022/08/23 09:04:30;;;;;;;0.30;0.30;;;26.40;99.90;;;;;;5071644;28;20250;-81
2022/08/23 09:07:11;;;;;;;0.30;0.30;;;26.90;99.90;;;;;;5072180;28;20830;-80
2022/08/23 09:10:00;;;;;;;0.22;0.22;;;27.10;99.90;;;;;;5070191;28;20406;-81
2022/08/23 09:12:44;;;;;;;0.30;0.30;;;27.50;99.90;;;;;;5049354;28;20055;-80
2022/08/23 09:15:36;;;;;;;0.20;0.20;;;27.60;99.90;;;;;;5087554;28;20048;-80
2022/08/23 09:18:09;;;;;;;0.30;0.30;;;27.80;99.90;;;;;;5067752;28;20147;-80
2022/08/23 09:20:35;;;;;;;0.30;0.30;;;27.80;99.90;;;;;;5070112;28;20044;-81
2022/08/23 09:23:28;;;;;;;0.25;0.25;;;27.90;99.90;;;;;;5052027;28;20043;-82
2022/08/23 09:25:59;;;;;;;0.22;0.22;;;28.20;99.90;;;;;;5069751;28;20044;-81
2022/08/23 09:28:28;;;;;;;0.28;0.28;;;28.20;99.90;;;;;;5069665;28;20656;-80
2022/08/23 09:30:57;;;;;;;0.20;0.20;;;27.90;99.90;;;;;;5067963;28;20052;-80
2022/08/23 09:33:37;;;;;;;0.20;0.20;;;27.50;99.90;;;;;;5071508;28;20097;-81
2022/08/23 09:36:27;;;;;;;0.20;0.20;;;28.10;99.90;;;;;;5070352;28;20047;-81
2022/08/23 09:38:56;;;;;;;0.20;0.20;;;28.10;99.90;;;;;;5070530;28;20050;-81
2022/08/23 09:41:42;;;;;;;0.25;0.25;;;27.80;99.90;;;;;;5087293;28;20050;-81
2022/08/23 09:44:15;;;;;;;0.20;0.20;;;28.30;99.90;;;;;;5070959;28;20054;-81
2022/08/23 09:46:41;;;;;;;0.20;0.20;;;28.60;99.90;;;;;;5054399;28;20074;-80
2022/08/23 09:49:24;;;;;;;0.20;0.20;;;28.70;99.90;;;;;;5087388;28;20472;-81
2022/08/23 09:51:51;;;;;;;0.20;0.20;;;28.70;99.90;;;;;;5069645;28;20048;-81
2022/08/23 09:54:33;;;;;;;0.20;0.20;;;28.60;99.90;;;;;;5059353;28;20050;-80
2022/08/23 09:57:12;;;;;;;0.22;0.22;;;28.90;99.90;;;;;;5067898;28;20070;-82
2022/08/23 09:59:44;;;;;;;0.20;0.20;;;28.80;99.90;;;;;;5068981;28;20461;-84
2022/08/23 10:02:19;;;;;;;0.20;0.20;;;29.40;99.90;;;;;;5069507;28;20040;-81
2022/08/23 10:05:03;;;;;;;0.20;0.20;;;29.40;99.90;;;;;;5069225;28;20047;-81
2022/08/23 10:07:33;;;;;;;0.28;0.28;;;28.60;99.90;;;;;;5069138;28;20487;-80
2022/08/23 10:10:14;;;;;;;0.30;0.30;;;28.90;99.90;;;;;;5087367;28;20051;-82
2022/08/23 10:12:40;;;;;;;0.30;0.30;;;28.70;99.90;;;;;;5088334;28;20050;-82
2022/08/23 10:15:08;;;;;;;0.30;0.30;;;28.30;99.90;;;;;;5069780;28;20078;-81
2022/08/23 10:17:49;;;;;;;0.20;0.20;;;28.00;99.90;;;;;;5070808;28;20370;-80
2022/08/23 10:20:42;;;;;;;0.20;0.20;;;28.40;99.90;;;;;;5060196;28;20166;-80
2022/08/23 10:23:11;;;;;;;0.22;0.22;;;28.90;99.90;;;;;;5074110;28;20050;-81
2022/08/23 10:25:53;;;;;;;0.30;0.30;;;28.30;99.90;;;;;;5074644;28;20051;-83
2022/08/23 10:31:36;;;;;;;0.30;0.30;;;29.10;99.90;;;;;;5036634;28;20497;-81
2022/08/23 10:34:23;;;;;;;0.30;0.30;;;29.20;99.90;;;;;;5055777;28;20052;-81
2022/08/23 10:37:13;;;;;;;0.20;0.20;;;29.00;99.70;;;;;;5045090;28;20055;-80
2022/08/23 10:39:52;;;;;;;0.30;0.30;;;27.90;99.40;;;;;;5061040;28;20052;-82
2022/08/23 10:42:51;;;;;;;0.30;0.30;;;28.90;99.90;;;;;;5057741;28;20116;-80
2022/08/23 10:45:30;;;;;;;0.20;0.20;;;29.60;99.90;;;;;;5061677;28;20044;-81
2022/08/23 10:48:21;;;;;;;0.25;0.25;;;29.40;99.90;;;;;;5074506;28;20044;-82
2022/08/23 10:51:08;;;;;;;0.20;0.20;;;28.80;99.90;;;;;;5058537;28;20059;-82
2022/08/23 10:53:36;;;;;;;0.20;0.20;;;29.00;99.90;;;;;;5058978;28;20075;-81
2022/08/23 10:56:06;;;;;;;0.30;0.30;;;29.60;99.90;;;;;;5075632;28;20551;-81
2022/08/23 10:58:45;;;;;;;0.22;0.20;;;29.60;98.10;;;;;;5074138;28;20043;-82
2022/08/23 11:01:17;;;;;;;0.20;0.20;;;29.10;99.80;;;;;;5061531;28;20846;-82
2022/08/23 11:03:51;;;;;;;0.20;0.20;;;29.30;99.20;;;;;;5043819;28;20139;-82
2022/08/23 11:06:24;;;;;;;0.20;0.20;;;29.50;99.30;;;;;;5058529;28;20060;-82
2022/08/23 11:09:16;;;;;;;0.30;0.30;;;29.20;99.00;;;;;;5075082;28;20510;-83
2022/08/23 11:11:48;;;;;;;0.20;0.20;;;29.00;99.00;;;;;;5047762;28;20560;-82
2022/08/23 11:14:40;;;;;;;0.20;0.20;;;29.80;98.80;;;;;;5060800;28;20075;-81
2022/08/23 11:17:10;;;;;;;0.30;0.30;;;29.30;98.90;;;;;;5057292;28;20044;-81
2022/08/23 11:19:55;;;;;;;0.20;0.20;;;29.60;98.60;;;;;;5057326;28;20048;-81
2022/08/23 11:22:23;;;;;;;0.20;0.20;;;29.10;97.20;;;;;;5043340;28;20051;-81
2022/08/23 11:25:29;;;;;;;0.25;0.25;;;29.80;98.80;;;;;;5056534;28;20051;-81
2022/08/23 11:28:23;;;;;;;0.25;0.25;;;30.30;96.90;;;;;;5028297;28;20099;-81
2022/08/23 11:31:07;;;;;;;0.20;0.20;;;30.10;95.60;;;;;;5083252;28;20058;-82
2022/08/23 11:34:10;;;;;;;0.30;0.30;;;29.70;93.10;;;;;;5071767;28;20048;-84
2022/08/23 11:36:37;;;;;;;0.20;0.20;;;30.10;95.80;;;;;;5090914;28;20061;-83
2022/08/23 11:39:11;;;;;;;0.22;0.22;;;30.50;96.50;;;;;;5072836;28;20075;-82
2022/08/23 11:41:55;;;;;;;;;;;30.60;96.40;;;;;;5073576;28;20050;-85
2022/08/23 11:44:26;;;;;;;0.30;0.30;;;30.60;96.10;;;;;;5071169;28;19926;-82
2022/08/23 11:46:53;;;;;;;0.30;0.30;;;30.60;95.00;;;;;;5073300;28;20051;-81
2022/08/23 11:49:29;;;;;;;0.20;0.20;;;30.00;94.40;;;;;;5088003;28;20066;-82
2022/08/23 11:52:18;;;;;;;0.20;0.20;;;29.60;96.40;;;;;;5073003;28;20046;-83
2022/08/23 11:55:04;;;;;;;0.30;0.30;;;29.60;95.30;;;;;;5091747;28;20050;-81
2022/08/23 11:57:56;;;;;;;0.20;0.20;;;29.20;94.10;;;;;;5059967;28;20051;-80
2022/08/23 12:00:26;;;;;;;0.20;0.20;;;29.10;94.10;;;;;;5074505;28;20054;-81
2022/08/23 12:03:33;;;;;;;0.30;0.30;;;29.70;96.30;;;;;;5074480;28;20147;-83
2022/08/23 12:06:01;;;;;;;0.30;0.30;;;30.00;95.50;;;;;;5031185;28;20051;-81
2022/08/23 12:08:52;;;;;;;0.28;0.28;;;30.20;95.50;;;;;;5073194;28;20054;-82
2022/08/23 12:11:19;;;;;;;0.20;0.20;;;30.40;94.90;;;;;;5089089;28;20048;-81
2022/08/23 12:13:55;;;;;;;0.20;0.20;;;29.90;94.10;;;;;;5081138;28;20048;-83
2022/08/23 12:16:22;;;;;;;0.20;0.20;;;30.40;94.50;;;;;;5089264;28;20043;-81
2022/08/23 12:18:48;;;;;;;0.30;0.30;;;30.90;95.70;;;;;;5089378;28;20462;-83
2022/08/23 12:21:25;;;;;;;0.30;0.30;;;30.90;94.10;;;;;;5089717;28;20089;-82
2022/08/23 12:23:55;;;;;;;0.32;0.32;;;30.60;92.80;;;;;;5088608;28;20451;-82
2022/08/23 12:26:37;;;;;;;0.28;0.28;;;30.90;92.40;;;;;;5089285;28;20545;-82
2022/08/23 12:29:18;;;;;;;0.20;0.20;;;30.60;94.00;;;;;;5090403;27;20051;-84
2022/08/23 12:32:00;;;;;;;0.20;0.20;;;30.90;94.00;;;;;;5112232;27;20962;-85
2022/08/23 12:34:44;;;;;;;0.25;0.25;;;31.60;92.90;;;;;;5091099;27;20048;-81
2022/08/23 12:37:28;;;;;;;0.20;0.20;;;31.70;92.80;;;;;;5078152;27;20043;-83
2022/08/23 12:39:57;;;;;;;0.30;0.30;;;31.40;92.10;;;;;;5111113;27;20058;-82
2022/08/23 12:42:30;;;;;;;0.20;0.20;;;31.70;92.40;;;;;;5076810;27;20042;-83
2022/08/23 12:45:18;;;;;;;0.20;0.20;;;30.70;92.30;;;;;;5090303;27;20853;-85
2022/08/23 12:47:55;;;;;;;0.20;0.20;;;31.30;92.50;;;;;;5108393;27;20122;-84
2022/08/23 12:50:35;;;;;;;0.20;0.20;;;31.60;92.20;;;;;;5091489;27;20043;-83
2022/08/23 12:53:14;;;;;;;0.20;0.20;;;31.40;92.40;;;;;;5111705;27;21203;-83
2022/08/23 12:55:49;;;;;;;0.30;0.30;;;29.90;92.70;;;;;;5092037;27;20039;-83
2022/08/23 12:58:24;;;;;;;0.30;0.30;;;29.80;93.90;;;;;;5092133;27;20392;-84
2022/08/23 13:00:56;;;;;;;0.20;0.20;;;29.80;94.40;;;;;;5088925;27;20055;-83
2022/08/23 13:03:37;;;;;;;0.20;0.20;;;29.70;94.00;;;;;;5092798;27;20050;-82
2022/08/23 13:06:11;;;;;;;0.20;0.20;;;30.40;94.60;;;;;;5090183;27;20046;-83
2022/08/23 13:08:39;;;;;;;0.25;0.25;;;30.60;94.60;;;;;;5109330;27;20104;-82
2022/08/23 13:11:06;;;;;;;0.30;0.30;;;30.30;93.70;;;;;;5109748;27;20122;-82
2022/08/23 13:13:32;;;;;;;0.30;0.30;;;30.10;93.30;;;;;;5111371;27;20651;-83
2022/08/23 13:16:00;;;;;;;0.30;0.30;;;29.90;94.50;;;;;;5091718;27;20043;-82
2022/08/23 13:18:30;;;;;;;0.22;0.22;;;29.80;92.30;;;;;;5090577;27;20112;-82
2022/08/23 13:21:25;;;;;;;0.20;0.20;;;29.50;93.50;;;;;;5109911;27;20502;-82
2022/08/23 13:23:58;;;;;;;0.20;0.20;;;29.20;93.60;;;;;;5090852;27;20063;-83